createdAt,value
2023-01-11T00:04:30.311Z,5.20
2023-01-11T00:09:37.166Z,6.65
2023-01-11T00:14:42.126Z,5.65
2023-01-11T00:19:44.196Z,4.50
2023-01-11T00:24:46.034Z,6.57
2023-01-11T00:29:47.968Z,4.95
2023-01-11T00:34:49.933Z,5.55
2023-01-11T00:39:52.757Z,5.75
2023-01-11T00:45:13.471Z,4.40
2023-01-11T00:50:15.429Z,2.97
2023-01-11T00:55:17.201Z,6.03
2023-01-11T01:00:20.527Z,5.15
2023-01-11T01:05:22.497Z,3.67
2023-01-11T01:10:25.295Z,3.78
2023-01-11T01:15:27.376Z,4.93
2023-01-11T01:20:29.170Z,4.72
2023-01-11T01:25:30.929Z,4.75
2023-01-11T01:30:33.844Z,5.82
2023-01-11T01:35:38.169Z,2.95
2023-01-11T01:40:44.578Z,3.13
2023-01-11T01:45:48.460Z,8.68
2023-01-11T01:50:57.619Z,8.20
2023-01-11T01:56:03.496Z,6.43
2023-01-11T02:01:24.346Z,5.15
2023-01-11T02:06:26.157Z,9.68
2023-01-11T02:11:31.348Z,7.20
2023-01-11T02:16:33.945Z,9.20
2023-01-11T02:21:38.298Z,12.75
2023-01-11T02:26:59.232Z,14.43
2023-01-11T02:32:30.897Z,15.07
2023-01-11T02:37:54.381Z,16.77
2023-01-11T02:43:32.798Z,18.52
2023-01-11T02:48:46.441Z,18.33
2023-01-11T02:53:54.767Z,13.07
2023-01-11T02:58:58.067Z,17.90
2023-01-11T03:03:59.625Z,18.02
2023-01-11T03:09:32.341Z,19.70
2023-01-11T03:14:45.642Z,28.15
2023-01-11T03:19:52.499Z,26.15
2023-01-11T03:25:20.483Z,30.58
2023-01-11T03:30:35.165Z,24.05
2023-01-11T03:35:39.588Z,24.83
2023-01-11T03:40:53.341Z,24.20
2023-01-11T03:45:59.985Z,25.50
2023-01-11T03:51:03.270Z,23.33
2023-01-11T03:56:09.865Z,21.65
2023-01-11T04:01:13.053Z,27.40
2023-01-11T04:06:15.351Z,26.63
2023-01-11T04:11:17.004Z,26.67
2023-01-11T04:16:18.728Z,26.80
2023-01-11T04:21:20.369Z,25.83
2023-01-11T04:26:21.989Z,22.35
2023-01-11T04:31:23.729Z,20.98
2023-01-11T04:36:26.429Z,26.88
2023-01-11T04:41:46.452Z,26.83
2023-01-11T04:46:48.180Z,20.52
2023-01-11T04:51:49.825Z,28.63
2023-01-11T04:56:51.499Z,19.45
2023-01-11T05:01:53.263Z,21.45
2023-01-11T05:06:54.965Z,25.23
2023-01-11T05:11:56.742Z,21.17
2023-01-11T05:16:59.036Z,18.48
2023-01-11T05:22:00.711Z,22.73
2023-01-11T05:27:03.589Z,17.75
2023-01-11T05:32:05.852Z,21.60
2023-01-11T05:37:07.464Z,20.05
2023-01-11T05:42:09.085Z,18.52
2023-01-11T05:47:10.703Z,18.35
2023-01-11T05:52:12.419Z,18.60
2023-01-11T05:57:14.040Z,15.02
2023-01-11T06:02:15.805Z,15.05
2023-01-11T06:07:17.486Z,19.65
2023-01-11T06:12:19.178Z,19.52
2023-01-11T06:17:20.830Z,16.50
2023-01-11T06:22:22.408Z,17.23
2023-01-11T06:27:23.987Z,16.40
2023-01-11T06:32:25.694Z,17.58
2023-01-11T06:37:27.283Z,13.98
2023-01-11T06:42:28.944Z,17.00
2023-01-11T06:47:30.697Z,15.10
2023-01-11T06:52:32.327Z,12.77
2023-01-11T06:57:33.962Z,16.33
2023-01-11T07:02:35.696Z,13.07
2023-01-11T07:07:38.210Z,19.90
2023-01-11T07:12:40.190Z,17.52
2023-01-11T07:17:41.868Z,15.98
2023-01-11T07:22:43.556Z,17.15
2023-01-11T07:27:45.265Z,13.85
2023-01-11T07:32:46.797Z,17.58
2023-01-11T07:37:48.455Z,12.18
2023-01-11T07:43:11.700Z,22.48
2023-01-11T07:48:14.741Z,15.57
2023-01-11T07:53:16.941Z,18.73
2023-01-11T07:58:18.656Z,12.73
2023-01-11T08:03:20.437Z,16.95
2023-01-11T08:08:22.252Z,14.15
2023-01-11T08:13:42.634Z,16.58
2023-01-11T08:23:45.796Z,15.95
2023-01-11T08:28:47.477Z,17.08
2023-01-11T08:33:49.862Z,15.75
2023-01-11T08:38:55.392Z,17.35
2023-01-11T08:43:57.007Z,18.95
2023-01-11T08:48:58.623Z,21.35
2023-01-11T08:54:00.296Z,16.58
2023-01-11T08:59:02.525Z,15.07
2023-01-11T09:04:15.527Z,13.32
2023-01-11T09:09:25.028Z,17.10
2023-01-11T09:14:28.533Z,13.48
2023-01-11T09:19:30.295Z,14.63
2023-01-11T09:24:32.134Z,14.30
2023-01-11T09:29:36.878Z,16.60
2023-01-11T09:34:39.301Z,14.63
2023-01-11T09:39:41.483Z,19.02
2023-01-11T09:44:51.394Z,20.13
2023-01-11T09:54:59.205Z,21.67
2023-01-11T10:00:09.695Z,16.73
2023-01-11T10:05:34.909Z,18.83
2023-01-11T10:18:33.077Z,24.88
2023-01-11T10:22:02.100Z,23.02
2023-01-11T10:27:12.488Z,16.23
2023-01-11T10:32:58.050Z,21.42
2023-01-11T10:38:23.024Z,19.58
2023-01-11T10:43:26.850Z,17.58
2023-01-11T10:48:43.529Z,13.98
2023-01-11T10:53:59.190Z,19.58
2023-01-11T10:59:15.783Z,23.48
2023-01-11T11:04:53.735Z,24.35
2023-01-11T11:10:19.118Z,15.57
2023-01-11T11:15:32.045Z,19.90
2023-01-11T11:20:35.034Z,22.85
2023-01-11T11:25:41.333Z,23.63
2023-01-11T11:30:46.979Z,18.02
2023-01-11T11:35:59.829Z,15.57
2023-01-11T11:41:04.564Z,21.33
2023-01-11T11:46:19.462Z,24.15
2023-01-11T11:51:23.625Z,19.50
2023-01-11T11:56:28.965Z,27.42
2023-01-11T12:01:37.095Z,19.25
2023-01-11T12:06:40.478Z,18.27
2023-01-11T12:11:42.340Z,19.27
2023-01-11T12:16:45.796Z,23.15
2023-01-11T12:21:47.586Z,21.30
2023-01-11T12:27:34.322Z,21.10
2023-01-11T12:32:49.004Z,26.08
2023-01-11T12:37:59.030Z,16.92
2023-01-11T12:48:46.272Z,26.42
2023-01-11T12:54:05.107Z,16.67
2023-01-11T12:59:22.156Z,18.35
2023-01-11T13:04:42.280Z,21.50
2023-01-11T13:10:09.985Z,24.65
2023-01-11T13:15:41.904Z,20.50
2023-01-11T13:21:06.923Z,16.63
2023-01-11T13:26:16.719Z,20.95
2023-01-11T13:31:19.694Z,15.40
2023-01-11T13:36:28.343Z,19.35
2023-01-11T13:41:48.373Z,24.58
2023-01-11T13:47:02.826Z,24.02
2023-01-11T13:52:16.968Z,22.63
2023-01-11T13:57:30.428Z,23.00
2023-01-11T14:02:58.022Z,23.98
2023-01-11T14:08:19.700Z,23.73
2023-01-11T14:14:11.770Z,28.65
2023-01-11T14:19:21.684Z,20.42
2023-01-11T14:24:25.875Z,21.42
2023-01-11T14:30:02.863Z,24.00
2023-01-11T14:35:19.451Z,18.25
2023-01-11T14:40:54.570Z,23.70
2023-01-11T14:46:23.705Z,16.80
2023-01-11T14:51:50.294Z,17.73
2023-01-11T14:56:55.667Z,20.42
2023-01-11T15:02:03.203Z,22.60
2023-01-11T15:07:28.957Z,29.20
2023-01-11T15:12:37.151Z,19.98
2023-01-11T15:17:58.966Z,19.92
2023-01-11T15:23:03.585Z,21.67
2023-01-11T15:28:40.025Z,20.90
2023-01-11T15:33:48.951Z,19.23
2023-01-11T15:39:21.447Z,23.90
2023-01-11T15:45:07.559Z,18.85
2023-01-11T15:50:38.999Z,26.33
2023-01-11T15:56:14.792Z,25.40
2023-01-11T16:01:29.568Z,22.77
2023-01-11T16:06:37.296Z,20.00
2023-01-11T16:12:06.681Z,23.77
2023-01-11T16:17:19.514Z,23.48
2023-01-11T16:22:25.756Z,19.67
2023-01-11T16:27:37.031Z,19.70
2023-01-11T16:32:38.948Z,20.25
2023-01-11T16:37:47.015Z,23.90
2023-01-11T16:43:23.869Z,28.42
2023-01-11T16:48:29.562Z,24.33
2023-01-11T16:53:36.593Z,22.08
2023-01-11T16:58:40.531Z,19.60
2023-01-11T17:03:54.870Z,25.88
2023-01-11T17:08:59.904Z,23.08
2023-01-11T17:14:25.931Z,24.40
2023-01-11T17:19:31.249Z,16.92
2023-01-11T17:25:07.470Z,26.60
2023-01-11T17:30:21.692Z,24.58
2023-01-11T17:35:26.825Z,31.45
2023-01-11T17:40:32.276Z,21.02
2023-01-11T17:45:34.787Z,34.17
2023-01-11T17:50:46.008Z,23.67
2023-01-11T17:55:58.833Z,27.35
2023-01-11T18:01:27.061Z,21.40
2023-01-11T18:06:45.061Z,23.70
2023-01-11T18:11:47.257Z,26.45
2023-01-11T18:17:30.785Z,22.13
2023-01-11T18:22:37.436Z,18.15
2023-01-11T18:27:39.277Z,26.17
2023-01-11T18:32:42.875Z,22.98
2023-01-11T18:37:44.491Z,19.80
2023-01-11T18:42:48.468Z,24.35
2023-01-11T18:47:50.515Z,19.30
2023-01-11T18:52:52.110Z,27.85
2023-01-11T18:57:53.763Z,23.58
2023-01-11T19:02:57.746Z,25.98
2023-01-11T19:07:59.454Z,27.95
2023-01-11T19:13:01.646Z,28.27
2023-01-11T19:18:03.981Z,30.58
2023-01-11T19:23:05.746Z,23.48
2023-01-11T19:28:07.520Z,22.73
2023-01-11T19:33:09.197Z,18.13
2023-01-11T19:38:11.084Z,24.23
2023-01-11T19:43:13.081Z,19.48
2023-01-11T19:48:15.137Z,17.70
2023-01-11T19:53:17.146Z,18.55
2023-01-11T19:58:18.787Z,18.13
2023-01-11T20:03:22.639Z,18.95
2023-01-11T20:08:24.389Z,22.20
2023-01-11T20:13:26.210Z,23.10
2023-01-11T20:18:27.857Z,22.10
2023-01-11T20:23:33.309Z,24.45
2023-01-11T20:28:34.999Z,19.63
2023-01-11T20:33:37.057Z,18.33
2023-01-11T20:38:39.274Z,27.40
2023-01-11T20:43:44.012Z,19.65
2023-01-11T20:48:48.246Z,18.73
2023-01-11T20:53:50.452Z,20.80
2023-01-11T20:58:52.224Z,20.27
2023-01-11T21:03:55.088Z,23.20
2023-01-11T21:08:59.841Z,20.30
2023-01-11T21:14:04.136Z,28.63
2023-01-11T21:19:06.041Z,30.77
2023-01-11T21:24:08.583Z,17.08
2023-01-11T21:29:11.597Z,24.48
2023-01-11T21:34:13.906Z,28.85
2023-01-11T21:39:16.519Z,30.45
2023-01-11T21:44:20.156Z,22.35
2023-01-11T21:49:24.199Z,24.15
2023-01-11T21:54:26.248Z,22.48
2023-01-11T21:59:30.006Z,26.10
2023-01-11T22:04:31.768Z,20.05
2023-01-11T22:09:33.719Z,22.48
2023-01-11T22:14:35.711Z,21.98
2023-01-11T22:19:37.732Z,16.70
2023-01-11T22:24:39.402Z,22.58
2023-01-11T22:29:43.214Z,19.58
2023-01-11T22:34:44.972Z,18.35
2023-01-11T22:39:46.610Z,18.52
2023-01-11T22:44:48.381Z,20.00
2023-01-11T22:49:54.356Z,20.42
2023-01-11T22:54:56.265Z,16.85
2023-01-11T22:59:58.956Z,21.48
2023-01-11T23:05:00.622Z,21.73
2023-01-11T23:10:02.408Z,21.08
2023-01-11T23:15:04.888Z,18.17
2023-01-11T23:20:06.872Z,24.90
2023-01-11T23:25:09.104Z,22.85
2023-01-11T23:30:11.359Z,17.35
2023-01-11T23:35:12.956Z,27.05
2023-01-11T23:40:14.697Z,21.77
2023-01-11T23:45:16.478Z,18.80
2023-01-11T23:50:18.148Z,22.75
2023-01-11T23:55:19.832Z,22.13
